Martin City, Missouri
Current Conditions -  °F | °C
As of 6:24 AM on Friday 31 Oct 2014 (Local Time) from KOJC Reporting Station
Broken Clouds Broken Clouds  
Wind Chill: 32°   Ceiling: 2400
Heat Index: 40°   Visibility: 10mi
Dew Point: 30°   Wind: 15mph
Humidity: 68%   Direction: 360°N
Pressure: 30.35"   Gusts: 24mph
Location:  38.8519°N, 94.5455°W
Report Text: KOJC 311124Z AUTO 36013G21KT 10SM BKN024 04/M01 A3035 RMK AO2 PK WND 36026/1110 T00441011
Loading
Personal Weather Stations






























Interactive Weather Map New forecast layout! Learn more

10-Day Weather Forecast

Advertisements
Track Severe Weather on mobile